Lancaster Airport Lancaster US
ICAO: KLNS
IATA: LNS
Category: Medium
Scheduled Services: Yes

Elevation: 403 ft
TransAlt. 18000 ft.

Airport Communications:
HARRISBURG APP/DEP:126.45
ATIS:125.675
CTAF:120.9
GND:121.8
WILLIAMSPORT RDO:117.3
TWR:120.9
UNICOM:122.95

KLNS Zoom In..

Runways:

(A) RW 08 length 6933 ft width 150 ft
ILS 108.70 / hdg 77

(B) RW 13 length 4102 ft width 100 ft
---- / hdg 128

(C) RW 26 length 6933 ft width 150 ft
---- / hdg 257

(D) RW 31 length 4102 ft width 100 ft
---- / hdg 308

Location; KLNS
Day. 10 / Time. 10.53 Zulu
* Altimeter: 29.49
* Temperature: 03° c. 37.4°f.
* Wind from: 280° Speed 15 kn with Gusts up to 24 kn.
Dewpoint: -04° c.
Visibility: 10 Statute Miles.
Clouds: Few 6000 ft.

KLNS 101053Z 28015G24KT 10SM FEW060 03/M04 A2949 RMK AO2 PK WND 29026/1030 SLP986 T00281039


Wind From 280°
Speed 15 kn.

 
 
jpsmedia worldairports.se 2020   terms of use